Pathein, Burma
Current Conditions -  °F | °C
As of 7:30 PM on Friday 19 Dec 2014 (Local Time) from VYYY Reporting Station
Haze Haze  
Wind Chill: 25°   Ceiling: Unl
Heat Index: 26°   Visibility: 4mi
Dew Point: 14°   Wind: 2mph
Humidity: 50%   Direction: 360°N
Pressure: 29.97"   Gusts: NA
Location:  16.78°N, 94.73°E
Report Text: VYYY 191330Z 36002KT 6000 HZ NSC 25/14 Q1015
Loading
Personal Weather Stations






























Interactive Weather Map New forecast layout! Learn more

10-Day Weather Forecast

Advertisements
Track Severe Weather on mobile